Terminal Aerodrome Forecast
Issued by NWS Cleveland, OH

Home | Current Version | Previous Version | Graphics & Text | Print | Product List | Glossary On
Versions: 1 2 3 4 5 6 7 8 9 10 11 12 13 14 15 16 17
000
FTUS41 KCLE 222351 AAA
TAFMFD
TAF AMD
KMFD 222351Z 2300/2324 21012KT P6SM SCT040 BKN200
     FM230500 19015KT P6SM BKN025 OVC040
     FM230600 19015KT P6SM BKN015 OVC025
      TEMPO 2307/2310 4SM SHRA OVC015
     FM231000 21015KT 4SM -SHRA BR VCTS BKN008CB OVC015
     FM231300 22015G22KT 3SM -SHRA BR VCTS BKN012CB OVC018
     FM232300 24010KT 5SM -SHRA OVC018=

USA.gov is the U.S. government's official web portal to all federal, state and local government web resources and services.